sensor_id;sensor_type;location;lat;lon;timestamp;P1;durP1;ratioP1;P2;durP2;ratioP2
76094;SDS011;64821;13.710;100.604;2023-10-09T00:00:05;15.98;;;6.50;;
76094;SDS011;64821;13.710;100.604;2023-10-09T00:01:10;12.70;;;5.97;;
76094;SDS011;64821;13.710;100.604;2023-10-09T00:02:14;16.50;;;6.20;;
76094;SDS011;64821;13.710;100.604;2023-10-09T00:03:18;11.80;;;6.10;;
76094;SDS011;64821;13.710;100.604;2023-10-09T00:04:24;14.60;;;6.30;;
76094;SDS011;64821;13.710;100.604;2023-10-09T00:05:28;15.98;;;7.55;;
76094;SDS011;64821;13.710;100.604;2023-10-09T00:06:32;14.57;;;6.40;;
76094;SDS011;64821;13.710;100.604;2023-10-09T00:07:36;16.63;;;6.47;;
76094;SDS011;64821;13.710;100.604;2023-10-09T00:08:40;16.50;;;6.60;;
76094;SDS011;64821;13.710;100.604;2023-10-09T00:09:44;14.00;;;6.75;;
76094;SDS011;64821;13.710;100.604;2023-10-09T00:10:47;19.02;;;7.72;;
76094;SDS011;64821;13.710;100.604;2023-10-09T00:11:51;16.10;;;7.10;;
76094;SDS011;64821;13.710;100.604;2023-10-09T00:12:55;14.80;;;6.95;;
76094;SDS011;64821;13.710;100.604;2023-10-09T00:14:00;16.58;;;7.50;;
76094;SDS011;64821;13.710;100.604;2023-10-09T00:15:04;15.95;;;7.35;;
76094;SDS011;64821;13.710;100.604;2023-10-09T00:16:08;16.48;;;7.30;;
76094;SDS011;64821;13.710;100.604;2023-10-09T00:17:12;18.47;;;8.50;;
76094;SDS011;64821;13.710;100.604;2023-10-09T00:18:17;18.23;;;8.18;;
76094;SDS011;64821;13.710;100.604;2023-10-09T00:19:21;15.68;;;6.97;;
76094;SDS011;64821;13.710;100.604;2023-10-09T00:20:27;15.38;;;7.30;;
76094;SDS011;64821;13.710;100.604;2023-10-09T00:21:31;17.02;;;7.82;;
76094;SDS011;64821;13.710;100.604;2023-10-09T00:22:35;17.53;;;7.70;;
76094;SDS011;64821;13.710;100.604;2023-10-09T00:23:39;17.00;;;7.65;;
76094;SDS011;64821;13.710;100.604;2023-10-09T00:24:43;17.38;;;8.13;;
76094;SDS011;64821;13.710;100.604;2023-10-09T00:25:50;18.00;;;7.90;;
76094;SDS011;64821;13.710;100.604;2023-10-09T00:26:54;17.75;;;8.10;;
76094;SDS011;64821;13.710;100.604;2023-10-09T00:27:58;14.90;;;7.57;;
76094;SDS011;64821;13.710;100.604;2023-10-09T00:29:02;19.60;;;8.20;;
76094;SDS011;64821;13.710;100.604;2023-10-09T00:30:06;17.77;;;7.60;;
76094;SDS011;64821;13.710;100.604;2023-10-09T00:31:11;16.13;;;7.05;;
76094;SDS011;64821;13.710;100.604;2023-10-09T00:32:15;18.60;;;8.13;;
76094;SDS011;64821;13.710;100.604;2023-10-09T00:33:19;16.90;;;7.07;;
76094;SDS011;64821;13.710;100.604;2023-10-09T00:34:25;15.02;;;6.90;;
76094;SDS011;64821;13.710;100.604;2023-10-09T00:35:29;18.33;;;8.38;;
76094;SDS011;64821;13.710;100.604;2023-10-09T00:36:33;16.92;;;8.35;;
76094;SDS011;64821;13.710;100.604;2023-10-09T00:37:37;15.77;;;7.47;;
76094;SDS011;64821;13.710;100.604;2023-10-09T00:38:41;18.03;;;8.60;;
76094;SDS011;64821;13.710;100.604;2023-10-09T00:39:45;19.17;;;7.75;;
76094;SDS011;64821;13.710;100.604;2023-10-09T00:40:49;18.08;;;7.97;;
76094;SDS011;64821;13.710;100.604;2023-10-09T00:41:54;15.63;;;7.50;;
76094;SDS011;64821;13.710;100.604;2023-10-09T00:42:59;18.80;;;7.88;;
76094;SDS011;64821;13.710;100.604;2023-10-09T00:44:03;17.63;;;8.07;;
76094;SDS011;64821;13.710;100.604;2023-10-09T00:45:07;17.95;;;7.63;;
76094;SDS011;64821;13.710;100.604;2023-10-09T00:46:14;20.15;;;8.80;;
76094;SDS011;64821;13.710;100.604;2023-10-09T00:47:19;20.15;;;9.20;;
76094;SDS011;64821;13.710;100.604;2023-10-09T00:48:23;16.13;;;7.60;;
76094;SDS011;64821;13.710;100.604;2023-10-09T00:49:29;16.23;;;7.10;;
76094;SDS011;64821;13.710;100.604;2023-10-09T00:50:36;16.05;;;7.60;;
76094;SDS011;64821;13.710;100.604;2023-10-09T00:51:41;15.82;;;7.57;;
76094;SDS011;64821;13.710;100.604;2023-10-09T00:52:52;18.13;;;7.70;;
76094;SDS011;64821;13.710;100.604;2023-10-09T00:54:00;19.33;;;8.13;;
76094;SDS011;64821;13.710;100.604;2023-10-09T00:55:07;18.70;;;8.87;;
76094;SDS011;64821;13.710;100.604;2023-10-09T00:56:13;17.40;;;7.38;;
76094;SDS011;64821;13.710;100.604;2023-10-09T00:57:18;14.48;;;7.07;;
76094;SDS011;64821;13.710;100.604;2023-10-09T00:58:23;14.07;;;6.75;;
76094;SDS011;64821;13.710;100.604;2023-10-09T00:59:27;16.67;;;7.60;;
76094;SDS011;64821;13.710;100.604;2023-10-09T01:00:32;14.73;;;6.93;;
76094;SDS011;64821;13.710;100.604;2023-10-09T01:01:37;17.00;;;7.32;;
76094;SDS011;64821;13.710;100.604;2023-10-09T01:02:41;15.85;;;8.05;;
76094;SDS011;64821;13.710;100.604;2023-10-09T01:03:45;14.95;;;7.00;;
76094;SDS011;64821;13.710;100.604;2023-10-09T01:04:51;17.13;;;7.97;;
76094;SDS011;64821;13.710;100.604;2023-10-09T01:05:56;16.10;;;6.97;;
76094;SDS011;64821;13.710;100.604;2023-10-09T01:07:00;19.00;;;7.85;;
76094;SDS011;64821;13.710;100.604;2023-10-09T01:08:04;18.30;;;7.80;;
76094;SDS011;64821;13.710;100.604;2023-10-09T01:09:09;14.48;;;7.13;;
76094;SDS011;64821;13.710;100.604;2023-10-09T01:10:14;13.85;;;6.80;;
76094;SDS011;64821;13.710;100.604;2023-10-09T01:11:18;15.27;;;6.90;;
76094;SDS011;64821;13.710;100.604;2023-10-09T01:12:22;16.85;;;7.35;;
76094;SDS011;64821;13.710;100.604;2023-10-09T01:13:26;15.05;;;7.18;;
76094;SDS011;64821;13.710;100.604;2023-10-09T01:14:30;11.80;;;6.35;;
76094;SDS011;64821;13.710;100.604;2023-10-09T01:15:34;12.52;;;6.80;;
76094;SDS011;64821;13.710;100.604;2023-10-09T01:16:38;15.63;;;7.03;;
76094;SDS011;64821;13.710;100.604;2023-10-09T01:17:42;14.27;;;6.30;;
76094;SDS011;64821;13.710;100.604;2023-10-09T01:18:47;17.75;;;7.80;;
76094;SDS011;64821;13.710;100.604;2023-10-09T01:19:54;14.75;;;6.95;;
76094;SDS011;64821;13.710;100.604;2023-10-09T01:20:58;13.63;;;7.10;;
76094;SDS011;64821;13.710;100.604;2023-10-09T01:22:02;14.07;;;6.70;;
76094;SDS011;64821;13.710;100.604;2023-10-09T01:23:07;13.98;;;6.60;;
76094;SDS011;64821;13.710;100.604;2023-10-09T01:24:13;17.98;;;7.57;;
76094;SDS011;64821;13.710;100.604;2023-10-09T01:25:17;15.45;;;6.88;;
76094;SDS011;64821;13.710;100.604;2023-10-09T01:26:21;16.02;;;7.30;;
76094;SDS011;64821;13.710;100.604;2023-10-09T01:27:25;15.73;;;6.90;;
76094;SDS011;64821;13.710;100.604;2023-10-09T01:28:29;14.15;;;6.70;;
76094;SDS011;64821;13.710;100.604;2023-10-09T01:29:33;14.30;;;6.45;;
76094;SDS011;64821;13.710;100.604;2023-10-09T01:30:40;13.98;;;6.00;;
76094;SDS011;64821;13.710;100.604;2023-10-09T01:31:45;13.57;;;6.13;;
76094;SDS011;64821;13.710;100.604;2023-10-09T01:32:51;15.20;;;6.27;;
76094;SDS011;64821;13.710;100.604;2023-10-09T01:33:55;14.35;;;5.90;;
76094;SDS011;64821;13.710;100.604;2023-10-09T01:34:59;15.57;;;6.57;;
76094;SDS011;64821;13.710;100.604;2023-10-09T01:36:03;12.07;;;5.95;;
76094;SDS011;64821;13.710;100.604;2023-10-09T01:37:10;13.75;;;6.45;;
76094;SDS011;64821;13.710;100.604;2023-10-09T01:38:16;13.40;;;6.10;;
76094;SDS011;64821;13.710;100.604;2023-10-09T01:39:20;13.60;;;6.50;;
76094;SDS011;64821;13.710;100.604;2023-10-09T01:40:25;12.45;;;6.30;;
76094;SDS011;64821;13.710;100.604;2023-10-09T01:41:29;12.48;;;6.45;;
76094;SDS011;64821;13.710;100.604;2023-10-09T01:42:33;13.80;;;6.32;;
76094;SDS011;64821;13.710;100.604;2023-10-09T01:43:38;12.80;;;5.90;;
76094;SDS011;64821;13.710;100.604;2023-10-09T01:44:41;11.35;;;5.20;;
76094;SDS011;64821;13.710;100.604;2023-10-09T01:45:45;12.02;;;5.60;;
76094;SDS011;64821;13.710;100.604;2023-10-09T01:46:49;10.75;;;5.28;;
76094;SDS011;64821;13.710;100.604;2023-10-09T01:47:57;12.23;;;5.55;;
76094;SDS011;64821;13.710;100.604;2023-10-09T01:49:10;13.13;;;5.07;;
76094;SDS011;64821;13.710;100.604;2023-10-09T01:50:23;11.48;;;5.28;;
76094;SDS011;64821;13.710;100.604;2023-10-09T01:51:27;11.93;;;5.72;;
76094;SDS011;64821;13.710;100.604;2023-10-09T01:52:31;11.10;;;5.65;;
76094;SDS011;64821;13.710;100.604;2023-10-09T01:53:37;11.07;;;5.68;;
76094;SDS011;64821;13.710;100.604;2023-10-09T01:54:41;10.37;;;4.87;;
76094;SDS011;64821;13.710;100.604;2023-10-09T01:55:46;11.05;;;5.13;;
76094;SDS011;64821;13.710;100.604;2023-10-09T01:56:50;10.90;;;5.75;;
76094;SDS011;64821;13.710;100.604;2023-10-09T01:57:58;11.55;;;5.60;;
76094;SDS011;64821;13.710;100.604;2023-10-09T01:59:02;13.50;;;5.65;;
76094;SDS011;64821;13.710;100.604;2023-10-09T02:00:07;11.40;;;5.57;;
76094;SDS011;64821;13.710;100.604;2023-10-09T02:01:11;10.80;;;5.60;;
76094;SDS011;64821;13.710;100.604;2023-10-09T02:02:24;12.40;;;5.43;;
76094;SDS011;64821;13.710;100.604;2023-10-09T02:03:30;11.95;;;4.97;;
76094;SDS011;64821;13.710;100.604;2023-10-09T02:04:34;11.23;;;5.43;;
76094;SDS011;64821;13.710;100.604;2023-10-09T02:05:38;9.87;;;4.80;;
76094;SDS011;64821;13.710;100.604;2023-10-09T02:06:44;11.10;;;5.00;;
76094;SDS011;64821;13.710;100.604;2023-10-09T02:07:48;11.52;;;5.40;;
76094;SDS011;64821;13.710;100.604;2023-10-09T02:08:54;11.98;;;5.00;;
76094;SDS011;64821;13.710;100.604;2023-10-09T02:09:58;10.55;;;5.00;;
76094;SDS011;64821;13.710;100.604;2023-10-09T02:11:02;12.07;;;5.30;;
76094;SDS011;64821;13.710;100.604;2023-10-09T02:12:06;10.52;;;5.15;;
76094;SDS011;64821;13.710;100.604;2023-10-09T02:13:10;10.77;;;5.50;;
76094;SDS011;64821;13.710;100.604;2023-10-09T02:14:14;10.68;;;4.93;;
76094;SDS011;64821;13.710;100.604;2023-10-09T02:15:18;11.18;;;4.72;;
76094;SDS011;64821;13.710;100.604;2023-10-09T02:16:22;10.53;;;4.90;;
76094;SDS011;64821;13.710;100.604;2023-10-09T02:17:26;9.55;;;4.35;;
76094;SDS011;64821;13.710;100.604;2023-10-09T02:18:30;10.38;;;5.13;;
76094;SDS011;64821;13.710;100.604;2023-10-09T02:19:34;9.20;;;4.70;;
76094;SDS011;64821;13.710;100.604;2023-10-09T02:20:38;11.07;;;5.20;;
76094;SDS011;64821;13.710;100.604;2023-10-09T02:21:42;12.10;;;5.80;;
76094;SDS011;64821;13.710;100.604;2023-10-09T02:22:49;12.60;;;5.53;;
76094;SDS011;64821;13.710;100.604;2023-10-09T02:23:55;11.50;;;5.13;;
76094;SDS011;64821;13.710;100.604;2023-10-09T02:24:59;12.88;;;5.65;;
76094;SDS011;64821;13.710;100.604;2023-10-09T02:26:03;11.90;;;5.75;;
76094;SDS011;64821;13.710;100.604;2023-10-09T02:27:09;10.73;;;5.63;;
76094;SDS011;64821;13.710;100.604;2023-10-09T02:28:13;12.43;;;6.00;;
76094;SDS011;64821;13.710;100.604;2023-10-09T02:29:17;11.15;;;5.55;;
76094;SDS011;64821;13.710;100.604;2023-10-09T02:30:21;13.10;;;5.68;;
76094;SDS011;64821;13.710;100.604;2023-10-09T02:31:25;13.23;;;6.10;;
76094;SDS011;64821;13.710;100.604;2023-10-09T02:32:29;11.03;;;5.17;;
76094;SDS011;64821;13.710;100.604;2023-10-09T02:33:33;12.23;;;5.50;;
76094;SDS011;64821;13.710;100.604;2023-10-09T02:34:37;13.07;;;5.65;;
76094;SDS011;64821;13.710;100.604;2023-10-09T02:35:41;10.48;;;5.32;;
76094;SDS011;64821;13.710;100.604;2023-10-09T02:36:45;13.45;;;5.97;;
76094;SDS011;64821;13.710;100.604;2023-10-09T02:37:50;11.90;;;6.20;;
76094;SDS011;64821;13.710;100.604;2023-10-09T02:38:56;12.40;;;6.57;;
76094;SDS011;64821;13.710;100.604;2023-10-09T02:39:59;13.20;;;6.25;;
76094;SDS011;64821;13.710;100.604;2023-10-09T02:41:03;11.65;;;5.93;;
76094;SDS011;64821;13.710;100.604;2023-10-09T02:42:07;12.65;;;6.25;;
76094;SDS011;64821;13.710;100.604;2023-10-09T02:43:12;16.40;;;6.77;;
76094;SDS011;64821;13.710;100.604;2023-10-09T02:44:16;12.13;;;5.90;;
76094;SDS011;64821;13.710;100.604;2023-10-09T02:45:20;14.35;;;6.60;;
76094;SDS011;64821;13.710;100.604;2023-10-09T02:46:24;16.10;;;6.85;;
76094;SDS011;64821;13.710;100.604;2023-10-09T02:47:28;13.27;;;6.53;;
76094;SDS011;64821;13.710;100.604;2023-10-09T02:48:32;14.93;;;6.80;;
76094;SDS011;64821;13.710;100.604;2023-10-09T02:49:36;13.43;;;5.87;;
76094;SDS011;64821;13.710;100.604;2023-10-09T02:50:40;12.00;;;6.43;;
76094;SDS011;64821;13.710;100.604;2023-10-09T02:51:44;13.52;;;6.20;;
76094;SDS011;64821;13.710;100.604;2023-10-09T02:52:48;11.95;;;6.68;;
76094;SDS011;64821;13.710;100.604;2023-10-09T02:53:52;11.15;;;6.20;;
76094;SDS011;64821;13.710;100.604;2023-10-09T02:54:58;11.43;;;6.30;;
76094;SDS011;64821;13.710;100.604;2023-10-09T02:56:02;11.55;;;6.90;;
76094;SDS011;64821;13.710;100.604;2023-10-09T02:57:06;13.13;;;7.30;;
76094;SDS011;64821;13.710;100.604;2023-10-09T02:58:10;12.60;;;6.60;;
76094;SDS011;64821;13.710;100.604;2023-10-09T02:59:14;13.10;;;6.60;;
76094;SDS011;64821;13.710;100.604;2023-10-09T03:00:18;12.40;;;6.97;;
76094;SDS011;64821;13.710;100.604;2023-10-09T03:01:22;11.63;;;6.55;;
76094;SDS011;64821;13.710;100.604;2023-10-09T03:02:26;11.68;;;6.50;;
76094;SDS011;64821;13.710;100.604;2023-10-09T03:03:30;13.25;;;7.00;;
76094;SDS011;64821;13.710;100.604;2023-10-09T03:04:35;12.50;;;6.50;;
76094;SDS011;64821;13.710;100.604;2023-10-09T03:05:39;12.80;;;7.03;;
76094;SDS011;64821;13.710;100.604;2023-10-09T03:06:43;15.45;;;7.70;;
76094;SDS011;64821;13.710;100.604;2023-10-09T03:07:47;14.55;;;7.85;;
76094;SDS011;64821;13.710;100.604;2023-10-09T03:08:51;13.32;;;7.07;;
76094;SDS011;64821;13.710;100.604;2023-10-09T03:09:55;14.48;;;6.88;;
76094;SDS011;64821;13.710;100.604;2023-10-09T03:11:00;14.83;;;7.20;;
76094;SDS011;64821;13.710;100.604;2023-10-09T03:12:04;13.70;;;7.60;;
76094;SDS011;64821;13.710;100.604;2023-10-09T03:13:09;13.30;;;7.22;;
76094;SDS011;64821;13.710;100.604;2023-10-09T03:14:13;11.63;;;6.80;;
76094;SDS011;64821;13.710;100.604;2023-10-09T03:15:17;12.93;;;7.20;;
76094;SDS011;64821;13.710;100.604;2023-10-09T03:16:21;11.63;;;6.80;;
76094;SDS011;64821;13.710;100.604;2023-10-09T03:17:25;12.32;;;6.75;;
76094;SDS011;64821;13.710;100.604;2023-10-09T03:18:30;13.20;;;6.90;;
76094;SDS011;64821;13.710;100.604;2023-10-09T03:19:34;15.68;;;7.97;;
76094;SDS011;64821;13.710;100.604;2023-10-09T03:20:38;13.68;;;7.38;;
76094;SDS011;64821;13.710;100.604;2023-10-09T03:21:42;11.47;;;7.00;;
76094;SDS011;64821;13.710;100.604;2023-10-09T03:22:46;13.20;;;7.35;;
76094;SDS011;64821;13.710;100.604;2023-10-09T03:23:50;11.68;;;7.35;;
76094;SDS011;64821;13.710;100.604;2023-10-09T03:24:54;13.02;;;7.32;;
76094;SDS011;64821;13.710;100.604;2023-10-09T03:26:00;13.18;;;6.82;;
76094;SDS011;64821;13.710;100.604;2023-10-09T03:27:22;11.00;;;6.83;;
76094;SDS011;64821;13.710;100.604;2023-10-09T03:28:26;11.88;;;7.30;;
76094;SDS011;64821;13.710;100.604;2023-10-09T03:29:31;12.98;;;7.10;;
76094;SDS011;64821;13.710;100.604;2023-10-09T03:30:34;11.70;;;7.13;;
76094;SDS011;64821;13.710;100.604;2023-10-09T03:31:39;13.00;;;7.28;;
76094;SDS011;64821;13.710;100.604;2023-10-09T03:32:44;13.17;;;7.67;;
76094;SDS011;64821;13.710;100.604;2023-10-09T03:33:48;12.20;;;7.05;;
76094;SDS011;64821;13.710;100.604;2023-10-09T03:34:52;13.15;;;7.50;;
76094;SDS011;64821;13.710;100.604;2023-10-09T03:35:56;12.13;;;7.60;;
76094;SDS011;64821;13.710;100.604;2023-10-09T03:37:00;11.82;;;7.65;;
76094;SDS011;64821;13.710;100.604;2023-10-09T03:38:04;13.47;;;7.70;;
76094;SDS011;64821;13.710;100.604;2023-10-09T03:39:07;11.43;;;7.80;;
76094;SDS011;64821;13.710;100.604;2023-10-09T03:40:12;12.18;;;7.63;;
76094;SDS011;64821;13.710;100.604;2023-10-09T03:41:17;11.45;;;7.60;;
76094;SDS011;64821;13.710;100.604;2023-10-09T03:42:21;11.75;;;7.53;;
76094;SDS011;64821;13.710;100.604;2023-10-09T03:43:25;13.40;;;7.80;;
76094;SDS011;64821;13.710;100.604;2023-10-09T03:44:29;11.50;;;7.60;;
76094;SDS011;64821;13.710;100.604;2023-10-09T03:45:33;12.18;;;7.72;;
76094;SDS011;64821;13.710;100.604;2023-10-09T03:46:37;12.32;;;7.50;;
76094;SDS011;64821;13.710;100.604;2023-10-09T03:47:41;12.00;;;8.20;;
76094;SDS011;64821;13.710;100.604;2023-10-09T03:48:46;13.13;;;8.97;;
76094;SDS011;64821;13.710;100.604;2023-10-09T03:49:50;12.35;;;7.93;;
76094;SDS011;64821;13.710;100.604;2023-10-09T03:50:54;12.55;;;8.50;;
76094;SDS011;64821;13.710;100.604;2023-10-09T03:51:59;14.43;;;8.50;;
76094;SDS011;64821;13.710;100.604;2023-10-09T03:53:03;12.45;;;8.30;;
76094;SDS011;64821;13.710;100.604;2023-10-09T03:54:08;13.77;;;9.30;;
76094;SDS011;64821;13.710;100.604;2023-10-09T03:55:12;14.93;;;9.50;;
76094;SDS011;64821;13.710;100.604;2023-10-09T03:56:18;12.05;;;8.20;;
76094;SDS011;64821;13.710;100.604;2023-10-09T03:57:22;14.35;;;8.93;;
76094;SDS011;64821;13.710;100.604;2023-10-09T03:58:26;13.82;;;8.73;;
76094;SDS011;64821;13.710;100.604;2023-10-09T03:59:30;11.73;;;8.30;;
76094;SDS011;64821;13.710;100.604;2023-10-09T04:00:34;12.60;;;8.55;;
76094;SDS011;64821;13.710;100.604;2023-10-09T04:01:38;13.70;;;9.40;;
76094;SDS011;64821;13.710;100.604;2023-10-09T04:02:42;12.88;;;8.65;;
76094;SDS011;64821;13.710;100.604;2023-10-09T04:03:46;11.60;;;8.10;;
76094;SDS011;64821;13.710;100.604;2023-10-09T04:04:50;15.03;;;8.83;;
76094;SDS011;64821;13.710;100.604;2023-10-09T04:05:54;13.95;;;9.45;;
76094;SDS011;64821;13.710;100.604;2023-10-09T04:06:58;12.52;;;7.93;;
76094;SDS011;64821;13.710;100.604;2023-10-09T04:08:03;15.25;;;9.30;;
76094;SDS011;64821;13.710;100.604;2023-10-09T04:09:07;14.38;;;8.88;;
76094;SDS011;64821;13.710;100.604;2023-10-09T04:10:12;12.13;;;9.27;;
76094;SDS011;64821;13.710;100.604;2023-10-09T04:11:18;13.27;;;9.45;;
76094;SDS011;64821;13.710;100.604;2023-10-09T04:12:22;12.60;;;9.25;;
76094;SDS011;64821;13.710;100.604;2023-10-09T04:13:26;14.30;;;9.63;;
76094;SDS011;64821;13.710;100.604;2023-10-09T04:14:30;12.02;;;8.88;;
76094;SDS011;64821;13.710;100.604;2023-10-09T04:15:34;12.97;;;8.80;;
76094;SDS011;64821;13.710;100.604;2023-10-09T04:16:38;13.23;;;9.20;;
76094;SDS011;64821;13.710;100.604;2023-10-09T04:17:42;15.10;;;9.65;;
76094;SDS011;64821;13.710;100.604;2023-10-09T04:18:46;15.88;;;10.05;;
76094;SDS011;64821;13.710;100.604;2023-10-09T04:19:50;13.90;;;9.95;;
76094;SDS011;64821;13.710;100.604;2023-10-09T04:20:55;14.60;;;10.03;;
76094;SDS011;64821;13.710;100.604;2023-10-09T04:21:59;14.60;;;9.57;;
76094;SDS011;64821;13.710;100.604;2023-10-09T04:23:03;13.52;;;10.45;;
76094;SDS011;64821;13.710;100.604;2023-10-09T04:24:07;12.52;;;9.50;;
76094;SDS011;64821;13.710;100.604;2023-10-09T04:25:11;15.65;;;9.98;;
76094;SDS011;64821;13.710;100.604;2023-10-09T04:26:15;15.30;;;9.70;;
76094;SDS011;64821;13.710;100.604;2023-10-09T04:27:21;14.15;;;9.70;;
76094;SDS011;64821;13.710;100.604;2023-10-09T04:28:25;15.48;;;10.10;;
76094;SDS011;64821;13.710;100.604;2023-10-09T04:29:29;13.50;;;10.80;;
76094;SDS011;64821;13.710;100.604;2023-10-09T04:30:33;14.60;;;10.15;;
76094;SDS011;64821;13.710;100.604;2023-10-09T04:31:37;15.07;;;10.63;;
76094;SDS011;64821;13.710;100.604;2023-10-09T04:32:41;13.35;;;10.10;;
76094;SDS011;64821;13.710;100.604;2023-10-09T04:33:45;15.18;;;10.38;;
76094;SDS011;64821;13.710;100.604;2023-10-09T04:34:49;16.60;;;10.95;;
76094;SDS011;64821;13.710;100.604;2023-10-09T04:35:54;16.92;;;11.13;;
76094;SDS011;64821;13.710;100.604;2023-10-09T04:36:58;15.40;;;10.20;;
76094;SDS011;64821;13.710;100.604;2023-10-09T04:38:02;14.43;;;10.55;;
76094;SDS011;64821;13.710;100.604;2023-10-09T04:39:06;12.85;;;9.70;;
76094;SDS011;64821;13.710;100.604;2023-10-09T04:40:10;14.00;;;10.30;;
76094;SDS011;64821;13.710;100.604;2023-10-09T04:41:14;14.50;;;9.98;;
76094;SDS011;64821;13.710;100.604;2023-10-09T04:42:20;15.67;;;11.10;;
76094;SDS011;64821;13.710;100.604;2023-10-09T04:43:24;16.23;;;11.18;;
76094;SDS011;64821;13.710;100.604;2023-10-09T04:44:28;15.35;;;10.85;;
76094;SDS011;64821;13.710;100.604;2023-10-09T04:45:35;16.02;;;10.40;;
76094;SDS011;64821;13.710;100.604;2023-10-09T04:46:40;15.63;;;11.07;;
76094;SDS011;64821;13.710;100.604;2023-10-09T04:47:44;15.23;;;10.87;;
76094;SDS011;64821;13.710;100.604;2023-10-09T04:48:48;14.32;;;10.50;;
76094;SDS011;64821;13.710;100.604;2023-10-09T04:49:52;15.43;;;10.63;;
76094;SDS011;64821;13.710;100.604;2023-10-09T04:50:56;14.85;;;10.73;;
76094;SDS011;64821;13.710;100.604;2023-10-09T04:52:00;15.20;;;10.73;;
76094;SDS011;64821;13.710;100.604;2023-10-09T04:53:04;13.33;;;10.33;;
76094;SDS011;64821;13.710;100.604;2023-10-09T04:54:08;14.95;;;11.15;;
76094;SDS011;64821;13.710;100.604;2023-10-09T04:55:12;14.40;;;10.40;;
76094;SDS011;64821;13.710;100.604;2023-10-09T04:56:16;16.25;;;10.93;;
76094;SDS011;64821;13.710;100.604;2023-10-09T04:57:22;13.70;;;10.27;;
76094;SDS011;64821;13.710;100.604;2023-10-09T04:58:26;14.40;;;10.63;;
76094;SDS011;64821;13.710;100.604;2023-10-09T04:59:30;14.52;;;10.15;;
76094;SDS011;64821;13.710;100.604;2023-10-09T05:00:34;15.07;;;10.38;;
76094;SDS011;64821;13.710;100.604;2023-10-09T05:01:38;16.35;;;10.93;;
76094;SDS011;64821;13.710;100.604;2023-10-09T05:02:42;14.20;;;10.70;;
76094;SDS011;64821;13.710;100.604;2023-10-09T05:03:46;15.53;;;10.40;;
76094;SDS011;64821;13.710;100.604;2023-10-09T05:04:50;15.35;;;10.70;;
76094;SDS011;64821;13.710;100.604;2023-10-09T05:05:54;14.20;;;10.80;;
76094;SDS011;64821;13.710;100.604;2023-10-09T05:06:58;13.57;;;10.32;;
76094;SDS011;64821;13.710;100.604;2023-10-09T05:08:03;13.77;;;10.15;;
76094;SDS011;64821;13.710;100.604;2023-10-09T05:09:07;14.53;;;10.10;;
76094;SDS011;64821;13.710;100.604;2023-10-09T05:10:14;17.73;;;10.80;;
76094;SDS011;64821;13.710;100.604;2023-10-09T05:11:18;16.10;;;10.63;;
76094;SDS011;64821;13.710;100.604;2023-10-09T05:12:24;14.90;;;10.85;;
76094;SDS011;64821;13.710;100.604;2023-10-09T05:13:29;13.43;;;10.02;;
76094;SDS011;64821;13.710;100.604;2023-10-09T05:14:33;16.90;;;10.03;;
76094;SDS011;64821;13.710;100.604;2023-10-09T05:15:37;14.70;;;10.35;;
76094;SDS011;64821;13.710;100.604;2023-10-09T05:16:41;14.70;;;10.50;;
76094;SDS011;64821;13.710;100.604;2023-10-09T05:17:46;14.65;;;10.20;;
76094;SDS011;64821;13.710;100.604;2023-10-09T05:18:50;14.60;;;10.38;;
76094;SDS011;64821;13.710;100.604;2023-10-09T05:19:54;15.10;;;10.40;;
76094;SDS011;64821;13.710;100.604;2023-10-09T05:20:58;14.48;;;10.13;;
76094;SDS011;64821;13.710;100.604;2023-10-09T05:22:02;14.27;;;10.48;;
76094;SDS011;64821;13.710;100.604;2023-10-09T05:23:06;15.20;;;10.80;;
76094;SDS011;64821;13.710;100.604;2023-10-09T05:24:10;14.13;;;9.98;;
76094;SDS011;64821;13.710;100.604;2023-10-09T05:25:15;13.90;;;10.33;;
76094;SDS011;64821;13.710;100.604;2023-10-09T05:26:19;14.38;;;10.45;;
76094;SDS011;64821;13.710;100.604;2023-10-09T05:27:25;15.55;;;10.60;;
76094;SDS011;64821;13.710;100.604;2023-10-09T05:28:29;15.95;;;11.38;;
76094;SDS011;64821;13.710;100.604;2023-10-09T05:29:33;15.65;;;10.40;;
76094;SDS011;64821;13.710;100.604;2023-10-09T05:30:37;13.77;;;10.20;;
76094;SDS011;64821;13.710;100.604;2023-10-09T05:31:41;14.15;;;10.02;;
76094;SDS011;64821;13.710;100.604;2023-10-09T05:32:45;14.38;;;10.98;;
76094;SDS011;64821;13.710;100.604;2023-10-09T05:33:49;15.35;;;10.60;;
76094;SDS011;64821;13.710;100.604;2023-10-09T05:34:55;15.95;;;10.48;;
76094;SDS011;64821;13.710;100.604;2023-10-09T05:36:00;15.37;;;10.33;;
76094;SDS011;64821;13.710;100.604;2023-10-09T05:37:05;14.05;;;10.32;;
76094;SDS011;64821;13.710;100.604;2023-10-09T05:38:09;16.02;;;11.93;;
76094;SDS011;64821;13.710;100.604;2023-10-09T05:39:13;13.63;;;10.13;;
76094;SDS011;64821;13.710;100.604;2023-10-09T05:40:17;14.10;;;9.98;;
76094;SDS011;64821;13.710;100.604;2023-10-09T05:41:21;13.10;;;10.33;;
76094;SDS011;64821;13.710;100.604;2023-10-09T05:42:27;13.18;;;9.98;;
76094;SDS011;64821;13.710;100.604;2023-10-09T05:43:32;16.58;;;11.27;;
76094;SDS011;64821;13.710;100.604;2023-10-09T05:44:36;14.82;;;10.73;;
76094;SDS011;64821;13.710;100.604;2023-10-09T05:45:40;13.40;;;10.43;;
76094;SDS011;64821;13.710;100.604;2023-10-09T05:46:44;15.03;;;10.97;;
76094;SDS011;64821;13.710;100.604;2023-10-09T05:47:48;13.82;;;10.60;;
76094;SDS011;64821;13.710;100.604;2023-10-09T05:48:53;14.45;;;10.25;;
76094;SDS011;64821;13.710;100.604;2023-10-09T05:49:57;15.25;;;10.27;;
76094;SDS011;64821;13.710;100.604;2023-10-09T05:51:01;14.10;;;9.90;;
76094;SDS011;64821;13.710;100.604;2023-10-09T05:52:05;14.33;;;10.67;;
76094;SDS011;64821;13.710;100.604;2023-10-09T05:53:09;14.07;;;10.60;;
76094;SDS011;64821;13.710;100.604;2023-10-09T05:54:13;15.63;;;10.82;;
76094;SDS011;64821;13.710;100.604;2023-10-09T05:55:17;14.88;;;10.48;;
76094;SDS011;64821;13.710;100.604;2023-10-09T05:56:22;13.95;;;9.98;;
76094;SDS011;64821;13.710;100.604;2023-10-09T05:57:27;14.07;;;10.13;;
76094;SDS011;64821;13.710;100.604;2023-10-09T05:58:31;14.48;;;10.02;;
76094;SDS011;64821;13.710;100.604;2023-10-09T05:59:35;15.75;;;10.45;;
76094;SDS011;64821;13.710;100.604;2023-10-09T06:00:39;12.30;;;10.05;;
76094;SDS011;64821;13.710;100.604;2023-10-09T06:01:43;14.13;;;10.57;;
76094;SDS011;64821;13.710;100.604;2023-10-09T06:02:47;14.90;;;10.70;;
76094;SDS011;64821;13.710;100.604;2023-10-09T06:04:03;13.85;;;10.85;;
76094;SDS011;64821;13.710;100.604;2023-10-09T06:05:07;12.13;;;9.60;;
76094;SDS011;64821;13.710;100.604;2023-10-09T06:06:12;15.35;;;10.00;;
76094;SDS011;64821;13.710;100.604;2023-10-09T06:07:16;13.27;;;9.80;;
76094;SDS011;64821;13.710;100.604;2023-10-09T06:08:20;13.20;;;9.60;;
76094;SDS011;64821;13.710;100.604;2023-10-09T06:09:24;13.25;;;9.88;;
76094;SDS011;64821;13.710;100.604;2023-10-09T06:10:28;14.07;;;9.65;;